sensor_id;sensor_type;location;lat;lon;timestamp;P1;durP1;ratioP1;P2;durP2;ratioP2
78143;SDS011;67394;52.522;13.622;2023-10-13T00:00:08;2.13;;;1.42;;
78143;SDS011;67394;52.522;13.622;2023-10-13T00:02:35;1.35;;;1.10;;
78143;SDS011;67394;52.522;13.622;2023-10-13T00:05:02;2.30;;;1.20;;
78143;SDS011;67394;52.522;13.622;2023-10-13T00:09:56;4.82;;;1.50;;
78143;SDS011;67394;52.522;13.622;2023-10-13T00:12:22;1.65;;;1.00;;
78143;SDS011;67394;52.522;13.622;2023-10-13T00:14:52;1.88;;;1.50;;
78143;SDS011;67394;52.522;13.622;2023-10-13T00:17:19;1.92;;;1.20;;
78143;SDS011;67394;52.522;13.622;2023-10-13T00:19:45;2.05;;;0.95;;
78143;SDS011;67394;52.522;13.622;2023-10-13T00:22:13;1.05;;;0.95;;
78143;SDS011;67394;52.522;13.622;2023-10-13T00:24:41;1.83;;;1.23;;
78143;SDS011;67394;52.522;13.622;2023-10-13T00:27:10;2.88;;;1.48;;
78143;SDS011;67394;52.522;13.622;2023-10-13T00:29:37;4.13;;;1.90;;
78143;SDS011;67394;52.522;13.622;2023-10-13T00:32:06;4.50;;;1.70;;
78143;SDS011;67394;52.522;13.622;2023-10-13T00:34:35;3.13;;;1.65;;
78143;SDS011;67394;52.522;13.622;2023-10-13T00:37:02;1.60;;;1.17;;
78143;SDS011;67394;52.522;13.622;2023-10-13T00:39:29;2.00;;;1.30;;
78143;SDS011;67394;52.522;13.622;2023-10-13T00:41:56;2.55;;;1.67;;
78143;SDS011;67394;52.522;13.622;2023-10-13T00:44:25;2.75;;;1.92;;
78143;SDS011;67394;52.522;13.622;2023-10-13T00:46:52;3.15;;;1.60;;
78143;SDS011;67394;52.522;13.622;2023-10-13T00:49:19;2.25;;;1.33;;
78143;SDS011;67394;52.522;13.622;2023-10-13T00:51:46;2.78;;;1.48;;
78143;SDS011;67394;52.522;13.622;2023-10-13T00:54:13;2.45;;;1.52;;
78143;SDS011;67394;52.522;13.622;2023-10-13T00:56:41;1.73;;;1.23;;
78143;SDS011;67394;52.522;13.622;2023-10-13T00:59:09;2.40;;;1.65;;
78143;SDS011;67394;52.522;13.622;2023-10-13T01:01:35;1.70;;;1.40;;
78143;SDS011;67394;52.522;13.622;2023-10-13T01:04:02;1.48;;;1.10;;
78143;SDS011;67394;52.522;13.622;2023-10-13T01:06:30;1.85;;;1.17;;
78143;SDS011;67394;52.522;13.622;2023-10-13T01:09:01;4.38;;;1.40;;
78143;SDS011;67394;52.522;13.622;2023-10-13T01:11:38;2.08;;;1.50;;
78143;SDS011;67394;52.522;13.622;2023-10-13T01:14:05;2.25;;;0.90;;
78143;SDS011;67394;52.522;13.622;2023-10-13T01:16:32;1.88;;;1.23;;
78143;SDS011;67394;52.522;13.622;2023-10-13T01:18:59;1.60;;;1.00;;
78143;SDS011;67394;52.522;13.622;2023-10-13T01:21:26;3.55;;;1.20;;
78143;SDS011;67394;52.522;13.622;2023-10-13T01:23:53;1.50;;;0.98;;
78143;SDS011;67394;52.522;13.622;2023-10-13T01:28:47;2.33;;;1.48;;
78143;SDS011;67394;52.522;13.622;2023-10-13T01:31:14;1.65;;;1.13;;
78143;SDS011;67394;52.522;13.622;2023-10-13T01:33:41;3.50;;;1.80;;
78143;SDS011;67394;52.522;13.622;2023-10-13T01:36:08;2.58;;;1.17;;
78143;SDS011;67394;52.522;13.622;2023-10-13T01:38:34;1.90;;;0.93;;
78143;SDS011;67394;52.522;13.622;2023-10-13T01:41:04;1.75;;;1.23;;
78143;SDS011;67394;52.522;13.622;2023-10-13T01:43:32;1.33;;;1.02;;
78143;SDS011;67394;52.522;13.622;2023-10-13T01:45:58;3.03;;;1.13;;
78143;SDS011;67394;52.522;13.622;2023-10-13T01:48:25;1.60;;;1.10;;
78143;SDS011;67394;52.522;13.622;2023-10-13T01:50:55;1.70;;;1.33;;
78143;SDS011;67394;52.522;13.622;2023-10-13T01:53:22;1.65;;;1.05;;
78143;SDS011;67394;52.522;13.622;2023-10-13T01:55:49;1.33;;;1.13;;
78143;SDS011;67394;52.522;13.622;2023-10-13T01:58:16;1.85;;;1.33;;
78143;SDS011;67394;52.522;13.622;2023-10-13T02:00:43;2.13;;;1.67;;
78143;SDS011;67394;52.522;13.622;2023-10-13T02:03:11;1.60;;;1.02;;
78143;SDS011;67394;52.522;13.622;2023-10-13T02:05:38;2.53;;;1.42;;
78143;SDS011;67394;52.522;13.622;2023-10-13T02:08:05;1.58;;;1.15;;
78143;SDS011;67394;52.522;13.622;2023-10-13T02:10:32;3.17;;;1.52;;
78143;SDS011;67394;52.522;13.622;2023-10-13T02:12:59;2.13;;;1.10;;
78143;SDS011;67394;52.522;13.622;2023-10-13T02:15:25;3.70;;;1.70;;
78143;SDS011;67394;52.522;13.622;2023-10-13T02:17:52;3.08;;;1.85;;
78143;SDS011;67394;52.522;13.622;2023-10-13T02:20:19;4.70;;;1.40;;
78143;SDS011;67394;52.522;13.622;2023-10-13T02:22:46;2.38;;;1.52;;
78143;SDS011;67394;52.522;13.622;2023-10-13T02:25:13;4.50;;;1.70;;
78143;SDS011;67394;52.522;13.622;2023-10-13T02:27:39;2.38;;;1.08;;
78143;SDS011;67394;52.522;13.622;2023-10-13T02:30:07;3.60;;;2.00;;
78143;SDS011;67394;52.522;13.622;2023-10-13T02:32:34;2.08;;;1.50;;
78143;SDS011;67394;52.522;13.622;2023-10-13T02:35:01;3.13;;;1.92;;
78143;SDS011;67394;52.522;13.622;2023-10-13T02:37:28;9.02;;;2.45;;
78143;SDS011;67394;52.522;13.622;2023-10-13T02:39:55;4.15;;;2.08;;
78143;SDS011;67394;52.522;13.622;2023-10-13T02:42:22;2.58;;;1.50;;
78143;SDS011;67394;52.522;13.622;2023-10-13T02:44:49;3.58;;;1.77;;
78143;SDS011;67394;52.522;13.622;2023-10-13T02:47:16;4.78;;;1.90;;
78143;SDS011;67394;52.522;13.622;2023-10-13T02:52:10;1.67;;;1.23;;
78143;SDS011;67394;52.522;13.622;2023-10-13T02:54:37;2.80;;;1.92;;
78143;SDS011;67394;52.522;13.622;2023-10-13T02:57:03;1.60;;;1.05;;
78143;SDS011;67394;52.522;13.622;2023-10-13T02:59:32;3.15;;;2.22;;
78143;SDS011;67394;52.522;13.622;2023-10-13T03:01:59;4.18;;;2.00;;
78143;SDS011;67394;52.522;13.622;2023-10-13T03:04:27;3.53;;;1.98;;
78143;SDS011;67394;52.522;13.622;2023-10-13T03:06:53;3.75;;;2.05;;
78143;SDS011;67394;52.522;13.622;2023-10-13T03:09:20;4.20;;;2.20;;
78143;SDS011;67394;52.522;13.622;2023-10-13T03:11:48;3.40;;;1.92;;
78143;SDS011;67394;52.522;13.622;2023-10-13T03:14:19;3.28;;;1.50;;
78143;SDS011;67394;52.522;13.622;2023-10-13T03:16:47;4.28;;;2.70;;
78143;SDS011;67394;52.522;13.622;2023-10-13T03:19:13;5.15;;;2.28;;
78143;SDS011;67394;52.522;13.622;2023-10-13T03:21:40;6.72;;;2.90;;
78143;SDS011;67394;52.522;13.622;2023-10-13T03:24:07;4.22;;;2.30;;
78143;SDS011;67394;52.522;13.622;2023-10-13T03:26:34;3.67;;;2.42;;
78143;SDS011;67394;52.522;13.622;2023-10-13T03:29:01;2.72;;;1.75;;
78143;SDS011;67394;52.522;13.622;2023-10-13T03:31:31;3.50;;;1.92;;
78143;SDS011;67394;52.522;13.622;2023-10-13T03:33:58;4.22;;;2.55;;
78143;SDS011;67394;52.522;13.622;2023-10-13T03:36:25;3.88;;;2.45;;
78143;SDS011;67394;52.522;13.622;2023-10-13T03:38:52;5.45;;;2.53;;
78143;SDS011;67394;52.522;13.622;2023-10-13T03:41:19;4.57;;;2.35;;
78143;SDS011;67394;52.522;13.622;2023-10-13T03:43:46;4.45;;;2.85;;
78143;SDS011;67394;52.522;13.622;2023-10-13T03:46:13;5.13;;;3.30;;
78143;SDS011;67394;52.522;13.622;2023-10-13T03:48:40;3.25;;;2.20;;
78143;SDS011;67394;52.522;13.622;2023-10-13T03:53:33;8.05;;;2.83;;
78143;SDS011;67394;52.522;13.622;2023-10-13T03:56:01;4.43;;;2.10;;
78143;SDS011;67394;52.522;13.622;2023-10-13T03:58:29;5.57;;;2.47;;
78143;SDS011;67394;52.522;13.622;2023-10-13T04:00:55;4.50;;;2.33;;
78143;SDS011;67394;52.522;13.622;2023-10-13T04:03:22;3.92;;;2.55;;
78143;SDS011;67394;52.522;13.622;2023-10-13T04:05:51;5.50;;;2.70;;
78143;SDS011;67394;52.522;13.622;2023-10-13T04:08:18;5.20;;;2.55;;
78143;SDS011;67394;52.522;13.622;2023-10-13T04:10:44;4.82;;;2.67;;
78143;SDS011;67394;52.522;13.622;2023-10-13T04:13:11;4.88;;;2.63;;
78143;SDS011;67394;52.522;13.622;2023-10-13T04:15:37;5.70;;;2.90;;
78143;SDS011;67394;52.522;13.622;2023-10-13T04:18:06;5.50;;;2.78;;
78143;SDS011;67394;52.522;13.622;2023-10-13T04:20:33;4.90;;;2.75;;
78143;SDS011;67394;52.522;13.622;2023-10-13T04:22:59;9.02;;;4.03;;
78143;SDS011;67394;52.522;13.622;2023-10-13T04:25:27;5.65;;;2.88;;
78143;SDS011;67394;52.522;13.622;2023-10-13T04:27:54;5.38;;;3.22;;
78143;SDS011;67394;52.522;13.622;2023-10-13T04:30:21;5.70;;;3.33;;
78143;SDS011;67394;52.522;13.622;2023-10-13T04:32:48;5.60;;;3.20;;
78143;SDS011;67394;52.522;13.622;2023-10-13T04:35:15;5.75;;;3.00;;
78143;SDS011;67394;52.522;13.622;2023-10-13T04:37:42;6.60;;;2.65;;
78143;SDS011;67394;52.522;13.622;2023-10-13T04:40:10;6.40;;;3.88;;
78143;SDS011;67394;52.522;13.622;2023-10-13T04:42:38;5.57;;;2.92;;
78143;SDS011;67394;52.522;13.622;2023-10-13T04:45:07;3.95;;;2.70;;
78143;SDS011;67394;52.522;13.622;2023-10-13T04:47:37;6.45;;;3.20;;
78143;SDS011;67394;52.522;13.622;2023-10-13T04:50:03;6.15;;;2.40;;
78143;SDS011;67394;52.522;13.622;2023-10-13T04:52:31;7.28;;;3.08;;
78143;SDS011;67394;52.522;13.622;2023-10-13T04:54:57;5.88;;;3.50;;
78143;SDS011;67394;52.522;13.622;2023-10-13T04:57:24;4.90;;;2.83;;
78143;SDS011;67394;52.522;13.622;2023-10-13T04:59:51;7.97;;;4.15;;
78143;SDS011;67394;52.522;13.622;2023-10-13T05:02:19;7.53;;;3.85;;
78143;SDS011;67394;52.522;13.622;2023-10-13T05:07:13;10.60;;;3.92;;
78143;SDS011;67394;52.522;13.622;2023-10-13T05:09:40;6.95;;;3.30;;
78143;SDS011;67394;52.522;13.622;2023-10-13T05:12:06;6.45;;;3.70;;
78143;SDS011;67394;52.522;13.622;2023-10-13T05:14:33;5.07;;;3.67;;
78143;SDS011;67394;52.522;13.622;2023-10-13T05:17:00;4.95;;;3.42;;
78143;SDS011;67394;52.522;13.622;2023-10-13T05:19:27;4.82;;;3.28;;
78143;SDS011;67394;52.522;13.622;2023-10-13T05:21:53;6.85;;;3.60;;
78143;SDS011;67394;52.522;13.622;2023-10-13T05:24:23;5.68;;;3.35;;
78143;SDS011;67394;52.522;13.622;2023-10-13T05:26:50;6.57;;;3.33;;
78143;SDS011;67394;52.522;13.622;2023-10-13T05:29:20;9.55;;;5.25;;
78143;SDS011;67394;52.522;13.622;2023-10-13T05:31:54;5.72;;;3.70;;
78143;SDS011;67394;52.522;13.622;2023-10-13T05:36:48;4.32;;;2.88;;
78143;SDS011;67394;52.522;13.622;2023-10-13T05:39:14;6.57;;;4.05;;
78143;SDS011;67394;52.522;13.622;2023-10-13T05:41:41;7.10;;;3.88;;
78143;SDS011;67394;52.522;13.622;2023-10-13T05:44:09;6.90;;;3.92;;
78143;SDS011;67394;52.522;13.622;2023-10-13T05:46:36;6.55;;;3.67;;
78143;SDS011;67394;52.522;13.622;2023-10-13T05:49:03;6.20;;;4.28;;
78143;SDS011;67394;52.522;13.622;2023-10-13T05:51:31;8.38;;;4.38;;
78143;SDS011;67394;52.522;13.622;2023-10-13T05:53:59;5.55;;;3.50;;
78143;SDS011;67394;52.522;13.622;2023-10-13T05:56:26;7.05;;;4.43;;
78143;SDS011;67394;52.522;13.622;2023-10-13T05:58:52;6.07;;;4.60;;
78143;SDS011;67394;52.522;13.622;2023-10-13T06:01:19;5.30;;;3.88;;
78143;SDS011;67394;52.522;13.622;2023-10-13T06:06:13;12.73;;;4.65;;
78143;SDS011;67394;52.522;13.622;2023-10-13T06:08:40;8.85;;;3.63;;
78143;SDS011;67394;52.522;13.622;2023-10-13T06:11:06;4.50;;;3.17;;
78143;SDS011;67394;52.522;13.622;2023-10-13T06:13:33;8.18;;;4.78;;
78143;SDS011;67394;52.522;13.622;2023-10-13T06:16:04;5.95;;;3.47;;
78143;SDS011;67394;52.522;13.622;2023-10-13T06:18:34;6.93;;;4.00;;
78143;SDS011;67394;52.522;13.622;2023-10-13T06:21:01;6.57;;;4.30;;
78143;SDS011;67394;52.522;13.622;2023-10-13T06:23:28;7.38;;;4.18;;
78143;SDS011;67394;52.522;13.622;2023-10-13T06:25:55;5.78;;;3.60;;
78143;SDS011;67394;52.522;13.622;2023-10-13T06:28:22;6.50;;;3.67;;
78143;SDS011;67394;52.522;13.622;2023-10-13T06:33:25;6.38;;;3.78;;
78143;SDS011;67394;52.522;13.622;2023-10-13T06:35:52;8.13;;;5.00;;
78143;SDS011;67394;52.522;13.622;2023-10-13T06:38:18;6.35;;;4.00;;
78143;SDS011;67394;52.522;13.622;2023-10-13T06:40:45;7.22;;;4.00;;
78143;SDS011;67394;52.522;13.622;2023-10-13T06:45:39;9.35;;;4.78;;
78143;SDS011;67394;52.522;13.622;2023-10-13T06:48:06;8.00;;;4.43;;
78143;SDS011;67394;52.522;13.622;2023-10-13T06:50:34;6.45;;;4.00;;
78143;SDS011;67394;52.522;13.622;2023-10-13T06:53:01;7.57;;;3.97;;
78143;SDS011;67394;52.522;13.622;2023-10-13T06:55:28;9.18;;;5.15;;
78143;SDS011;67394;52.522;13.622;2023-10-13T06:57:55;6.53;;;4.18;;
78143;SDS011;67394;52.522;13.622;2023-10-13T07:00:22;6.43;;;3.63;;
78143;SDS011;67394;52.522;13.622;2023-10-13T07:02:51;7.10;;;4.53;;
78143;SDS011;67394;52.522;13.622;2023-10-13T07:07:45;10.15;;;3.88;;
78143;SDS011;67394;52.522;13.622;2023-10-13T07:10:12;6.93;;;4.07;;
78143;SDS011;67394;52.522;13.622;2023-10-13T07:12:39;7.63;;;4.50;;
78143;SDS011;67394;52.522;13.622;2023-10-13T07:15:07;8.82;;;3.25;;
78143;SDS011;67394;52.522;13.622;2023-10-13T07:17:34;7.05;;;4.05;;
78143;SDS011;67394;52.522;13.622;2023-10-13T07:20:01;6.78;;;4.47;;
78143;SDS011;67394;52.522;13.622;2023-10-13T07:22:29;6.10;;;4.10;;
78143;SDS011;67394;52.522;13.622;2023-10-13T07:24:56;7.72;;;4.75;;
78143;SDS011;67394;52.522;13.622;2023-10-13T07:27:23;7.28;;;4.22;;
78143;SDS011;67394;52.522;13.622;2023-10-13T07:29:56;6.35;;;3.92;;
78143;SDS011;67394;52.522;13.622;2023-10-13T07:32:23;7.07;;;4.20;;
78143;SDS011;67394;52.522;13.622;2023-10-13T07:34:53;8.38;;;4.75;;
78143;SDS011;67394;52.522;13.622;2023-10-13T07:37:20;6.53;;;4.00;;
78143;SDS011;67394;52.522;13.622;2023-10-13T07:39:47;6.47;;;4.15;;
78143;SDS011;67394;52.522;13.622;2023-10-13T07:42:14;6.22;;;3.97;;
78143;SDS011;67394;52.522;13.622;2023-10-13T07:44:40;7.03;;;4.90;;
78143;SDS011;67394;52.522;13.622;2023-10-13T07:49:38;5.63;;;3.78;;
78143;SDS011;67394;52.522;13.622;2023-10-13T07:52:06;7.35;;;3.85;;
78143;SDS011;67394;52.522;13.622;2023-10-13T07:54:34;6.22;;;3.53;;
78143;SDS011;67394;52.522;13.622;2023-10-13T07:57:01;5.03;;;3.05;;
78143;SDS011;67394;52.522;13.622;2023-10-13T07:59:28;5.35;;;3.72;;
78143;SDS011;67394;52.522;13.622;2023-10-13T08:04:21;4.57;;;3.33;;
78143;SDS011;67394;52.522;13.622;2023-10-13T08:06:49;7.38;;;3.58;;
78143;SDS011;67394;52.522;13.622;2023-10-13T08:09:17;6.63;;;3.15;;
78143;SDS011;67394;52.522;13.622;2023-10-13T08:11:43;6.03;;;3.22;;
78143;SDS011;67394;52.522;13.622;2023-10-13T08:14:11;6.50;;;3.47;;
78143;SDS011;67394;52.522;13.622;2023-10-13T08:16:56;6.75;;;3.80;;
78143;SDS011;67394;52.522;13.622;2023-10-13T08:19:23;6.30;;;3.00;;
78143;SDS011;67394;52.522;13.622;2023-10-13T08:21:50;5.45;;;2.95;;
78143;SDS011;67394;52.522;13.622;2023-10-13T08:24:17;4.38;;;3.20;;
78143;SDS011;67394;52.522;13.622;2023-10-13T08:26:44;5.07;;;3.22;;
78143;SDS011;67394;52.522;13.622;2023-10-13T08:29:14;7.07;;;3.42;;
78143;SDS011;67394;52.522;13.622;2023-10-13T08:31:41;7.22;;;3.00;;
78143;SDS011;67394;52.522;13.622;2023-10-13T08:34:08;6.00;;;3.15;;
78143;SDS011;67394;52.522;13.622;2023-10-13T08:36:35;4.57;;;3.20;;
78143;SDS011;67394;52.522;13.622;2023-10-13T08:39:01;7.43;;;3.50;;
78143;SDS011;67394;52.522;13.622;2023-10-13T08:41:28;5.28;;;3.20;;
78143;SDS011;67394;52.522;13.622;2023-10-13T08:43:58;4.45;;;2.83;;
78143;SDS011;67394;52.522;13.622;2023-10-13T08:46:28;5.97;;;2.97;;
78143;SDS011;67394;52.522;13.622;2023-10-13T08:48:57;4.43;;;2.95;;
78143;SDS011;67394;52.522;13.622;2023-10-13T08:51:28;3.47;;;2.65;;
78143;SDS011;67394;52.522;13.622;2023-10-13T08:53:56;6.00;;;3.35;;
78143;SDS011;67394;52.522;13.622;2023-10-13T08:56:26;4.68;;;3.22;;
78143;SDS011;67394;52.522;13.622;2023-10-13T08:58:53;4.20;;;3.03;;
78143;SDS011;67394;52.522;13.622;2023-10-13T09:01:25;4.55;;;3.08;;
78143;SDS011;67394;52.522;13.622;2023-10-13T09:03:56;5.90;;;3.15;;
78143;SDS011;67394;52.522;13.622;2023-10-13T09:06:26;3.95;;;2.83;;
78143;SDS011;67394;52.522;13.622;2023-10-13T09:11:20;3.75;;;2.97;;
78143;SDS011;67394;52.522;13.622;2023-10-13T09:13:46;5.68;;;2.78;;
78143;SDS011;67394;52.522;13.622;2023-10-13T09:18:42;4.20;;;2.92;;
78143;SDS011;67394;52.522;13.622;2023-10-13T09:21:09;3.92;;;2.60;;
78143;SDS011;67394;52.522;13.622;2023-10-13T09:23:36;4.93;;;3.05;;
78143;SDS011;67394;52.522;13.622;2023-10-13T09:26:12;4.13;;;2.80;;
78143;SDS011;67394;52.522;13.622;2023-10-13T09:31:06;5.18;;;2.53;;
78143;SDS011;67394;52.522;13.622;2023-10-13T09:33:33;3.67;;;2.20;;
78143;SDS011;67394;52.522;13.622;2023-10-13T09:36:00;5.95;;;3.03;;
78143;SDS011;67394;52.522;13.622;2023-10-13T09:38:30;5.10;;;3.10;;
78143;SDS011;67394;52.522;13.622;2023-10-13T09:40:59;5.32;;;3.03;;
78143;SDS011;67394;52.522;13.622;2023-10-13T09:45:55;5.15;;;2.97;;
78143;SDS011;67394;52.522;13.622;2023-10-13T09:48:28;4.57;;;3.17;;
78143;SDS011;67394;52.522;13.622;2023-10-13T09:51:03;3.28;;;2.42;;
78143;SDS011;67394;52.522;13.622;2023-10-13T09:53:32;6.07;;;2.85;;
78143;SDS011;67394;52.522;13.622;2023-10-13T09:58:28;4.30;;;3.15;;
78143;SDS011;67394;52.522;13.622;2023-10-13T10:00:57;4.60;;;3.15;;
78143;SDS011;67394;52.522;13.622;2023-10-13T10:03:30;3.97;;;2.55;;
78143;SDS011;67394;52.522;13.622;2023-10-13T10:06:01;4.93;;;2.75;;
78143;SDS011;67394;52.522;13.622;2023-10-13T10:08:32;3.45;;;2.15;;
78143;SDS011;67394;52.522;13.622;2023-10-13T10:11:07;4.60;;;3.03;;
78143;SDS011;67394;52.522;13.622;2023-10-13T10:14:15;3.95;;;2.70;;
78143;SDS011;67394;52.522;13.622;2023-10-13T10:19:31;5.03;;;2.72;;
78143;SDS011;67394;52.522;13.622;2023-10-13T10:22:02;4.72;;;2.67;;
78143;SDS011;67394;52.522;13.622;2023-10-13T10:24:29;4.15;;;2.38;;
78143;SDS011;67394;52.522;13.622;2023-10-13T10:26:56;4.07;;;2.58;;
78143;SDS011;67394;52.522;13.622;2023-10-13T10:29:23;4.18;;;2.97;;
78143;SDS011;67394;52.522;13.622;2023-10-13T10:31:50;4.68;;;2.35;;
78143;SDS011;67394;52.522;13.622;2023-10-13T10:34:18;4.05;;;2.83;;
78143;SDS011;67394;52.522;13.622;2023-10-13T10:36:47;5.05;;;2.88;;
78143;SDS011;67394;52.522;13.622;2023-10-13T10:39:20;3.83;;;2.72;;
78143;SDS011;67394;52.522;13.622;2023-10-13T10:41:46;4.88;;;3.03;;
78143;SDS011;67394;52.522;13.622;2023-10-13T10:44:13;3.60;;;2.92;;
78143;SDS011;67394;52.522;13.622;2023-10-13T10:46:41;5.10;;;2.70;;
78143;SDS011;67394;52.522;13.622;2023-10-13T10:49:09;4.07;;;2.83;;
78143;SDS011;67394;52.522;13.622;2023-10-13T10:51:36;4.47;;;3.03;;
78143;SDS011;67394;52.522;13.622;2023-10-13T10:54:19;4.25;;;2.88;;
78143;SDS011;67394;52.522;13.622;2023-10-13T10:56:47;5.28;;;3.05;;
78143;SDS011;67394;52.522;13.622;2023-10-13T10:59:14;4.45;;;2.40;;
78143;SDS011;67394;52.522;13.622;2023-10-13T11:04:09;4.90;;;3.13;;
78143;SDS011;67394;52.522;13.622;2023-10-13T11:06:36;5.53;;;3.08;;
78143;SDS011;67394;52.522;13.622;2023-10-13T11:09:06;5.95;;;3.47;;
78143;SDS011;67394;52.522;13.622;2023-10-13T11:11:33;5.72;;;2.60;;
78143;SDS011;67394;52.522;13.622;2023-10-13T11:16:28;4.25;;;2.72;;
78143;SDS011;67394;52.522;13.622;2023-10-13T11:21:29;2.90;;;2.35;;
78143;SDS011;67394;52.522;13.622;2023-10-13T11:23:57;4.47;;;3.00;;
78143;SDS011;67394;52.522;13.622;2023-10-13T11:26:34;4.82;;;3.00;;
78143;SDS011;67394;52.522;13.622;2023-10-13T11:29:01;6.80;;;3.47;;
78143;SDS011;67394;52.522;13.622;2023-10-13T11:31:30;5.40;;;3.28;;
78143;SDS011;67394;52.522;13.622;2023-10-13T11:33:57;5.03;;;3.38;;
78143;SDS011;67394;52.522;13.622;2023-10-13T11:36:24;5.07;;;3.58;;
78143;SDS011;67394;52.522;13.622;2023-10-13T11:38:51;5.57;;;3.85;;
78143;SDS011;67394;52.522;13.622;2023-10-13T11:48:51;4.47;;;2.78;;
78143;SDS011;67394;52.522;13.622;2023-10-13T11:51:18;6.30;;;2.97;;
78143;SDS011;67394;52.522;13.622;2023-10-13T11:53:45;5.00;;;3.17;;
78143;SDS011;67394;52.522;13.622;2023-10-13T11:58:38;4.50;;;2.72;;
78143;SDS011;67394;52.522;13.622;2023-10-13T12:01:10;4.57;;;3.05;;
78143;SDS011;67394;52.522;13.622;2023-10-13T12:06:08;4.97;;;3.05;;
78143;SDS011;67394;52.522;13.622;2023-10-13T12:08:37;4.75;;;3.20;;
78143;SDS011;67394;52.522;13.622;2023-10-13T12:13:30;4.25;;;2.72;;
78143;SDS011;67394;52.522;13.622;2023-10-13T12:15:57;4.43;;;2.88;;
78143;SDS011;67394;52.522;13.622;2023-10-13T12:20:52;5.38;;;2.90;;
78143;SDS011;67394;52.522;13.622;2023-10-13T12:25:45;5.07;;;2.70;;
78143;SDS011;67394;52.522;13.622;2023-10-13T12:28:12;4.15;;;3.00;;
78143;SDS011;67394;52.522;13.622;2023-10-13T12:30:42;6.85;;;3.75;;
78143;SDS011;67394;52.522;13.622;2023-10-13T12:35:36;5.82;;;3.50;;
78143;SDS011;67394;52.522;13.622;2023-10-13T12:38:06;5.20;;;3.60;;
78143;SDS011;67394;52.522;13.622;2023-10-13T12:40:33;4.50;;;2.70;;
78143;SDS011;67394;52.522;13.622;2023-10-13T12:43:00;5.50;;;2.70;;
78143;SDS011;67394;52.522;13.622;2023-10-13T12:45:26;5.88;;;3.30;;
78143;SDS011;67394;52.522;13.622;2023-10-13T12:47:53;3.92;;;3.17;;
78143;SDS011;67394;52.522;13.622;2023-10-13T12:52:46;5.20;;;2.95;;
78143;SDS011;67394;52.522;13.622;2023-10-13T12:57:41;5.05;;;3.30;;
78143;SDS011;67394;52.522;13.622;2023-10-13T13:00:08;5.05;;;2.85;;
78143;SDS011;67394;52.522;13.622;2023-10-13T13:02:36;4.40;;;2.88;;
78143;SDS011;67394;52.522;13.622;2023-10-13T13:05:03;3.85;;;2.78;;
78143;SDS011;67394;52.522;13.622;2023-10-13T13:07:32;4.72;;;2.75;;
78143;SDS011;67394;52.522;13.622;2023-10-13T13:09:59;5.60;;;2.50;;
78143;SDS011;67394;52.522;13.622;2023-10-13T13:12:26;3.80;;;3.05;;
78143;SDS011;67394;52.522;13.622;2023-10-13T13:14:55;5.47;;;2.60;;
78143;SDS011;67394;52.522;13.622;2023-10-13T13:19:50;4.45;;;2.63;;
78143;SDS011;67394;52.522;13.622;2023-10-13T13:24:44;4.05;;;2.90;;
78143;SDS011;67394;52.522;13.622;2023-10-13T13:27:15;3.13;;;2.55;;
78143;SDS011;67394;52.522;13.622;2023-10-13T13:29:45;6.07;;;2.95;;
78143;SDS011;67394;52.522;13.622;2023-10-13T13:34:38;4.55;;;2.80;;
78143;SDS011;67394;52.522;13.622;2023-10-13T13:37:05;7.88;;;3.15;;
78143;SDS011;67394;52.522;13.622;2023-10-13T13:39:31;5.50;;;2.70;;
78143;SDS011;67394;52.522;13.622;2023-10-13T13:41:58;4.30;;;2.50;;
78143;SDS011;67394;52.522;13.622;2023-10-13T13:44:25;4.43;;;2.97;;
78143;SDS011;67394;52.522;13.622;2023-10-13T13:46:52;4.82;;;2.90;;
78143;SDS011;67394;52.522;13.622;2023-10-13T13:51:47;4.03;;;2.05;;
78143;SDS011;67394;52.522;13.622;2023-10-13T13:54:13;4.10;;;2.92;;
78143;SDS011;67394;52.522;13.622;2023-10-13T13:59:07;4.03;;;2.38;;
78143;SDS011;67394;52.522;13.622;2023-10-13T14:01:34;5.53;;;3.10;;
78143;SDS011;67394;52.522;13.622;2023-10-13T14:04:01;5.55;;;2.47;;
78143;SDS011;67394;52.522;13.622;2023-10-13T14:06:27;6.45;;;2.85;;
78143;SDS011;67394;52.522;13.622;2023-10-13T14:11:26;5.88;;;2.60;;
78143;SDS011;67394;52.522;13.622;2023-10-13T14:13:53;4.93;;;3.20;;
78143;SDS011;67394;52.522;13.622;2023-10-13T14:16:22;3.75;;;2.45;;
78143;SDS011;67394;52.522;13.622;2023-10-13T14:18:50;4.47;;;2.95;;
78143;SDS011;67394;52.522;13.622;2023-10-13T14:21:17;5.90;;;2.90;;
78143;SDS011;67394;52.522;13.622;2023-10-13T14:26:12;4.55;;;2.88;;
78143;SDS011;67394;52.522;13.622;2023-10-13T14:28:40;4.47;;;2.60;;
78143;SDS011;67394;52.522;13.622;2023-10-13T14:31:10;5.15;;;2.88;;
78143;SDS011;67394;52.522;13.622;2023-10-13T14:33:37;4.60;;;2.58;;
78143;SDS011;67394;52.522;13.622;2023-10-13T14:36:05;4.50;;;2.55;;
78143;SDS011;67394;52.522;13.622;2023-10-13T14:38:35;4.75;;;2.47;;
78143;SDS011;67394;52.522;13.622;2023-10-13T14:41:02;4.28;;;2.97;;
78143;SDS011;67394;52.522;13.622;2023-10-13T14:43:29;4.40;;;2.80;;
78143;SDS011;67394;52.522;13.622;2023-10-13T14:45:56;6.25;;;2.58;;
78143;SDS011;67394;52.522;13.622;2023-10-13T14:48:23;4.40;;;2.58;;
78143;SDS011;67394;52.522;13.622;2023-10-13T14:50:49;3.97;;;2.47;;
78143;SDS011;67394;52.522;13.622;2023-10-13T14:53:16;3.33;;;2.67;;
78143;SDS011;67394;52.522;13.622;2023-10-13T14:55:46;4.03;;;2.42;;
78143;SDS011;67394;52.522;13.622;2023-10-13T14:58:13;5.97;;;2.80;;
78143;SDS011;67394;52.522;13.622;2023-10-13T15:03:06;5.65;;;2.35;;
78143;SDS011;67394;52.522;13.622;2023-10-13T15:05:37;5.95;;;3.35;;
78143;SDS011;67394;52.522;13.622;2023-10-13T15:08:04;4.13;;;2.55;;
78143;SDS011;67394;52.522;13.622;2023-10-13T15:10:32;4.22;;;2.90;;
78143;SDS011;67394;52.522;13.622;2023-10-13T15:12:58;3.88;;;2.60;;
78143;SDS011;67394;52.522;13.622;2023-10-13T15:15:25;4.85;;;2.83;;
78143;SDS011;67394;52.522;13.622;2023-10-13T15:17:52;6.70;;;2.97;;
78143;SDS011;67394;52.522;13.622;2023-10-13T15:20:20;5.18;;;2.60;;
78143;SDS011;67394;52.522;13.622;2023-10-13T15:22:48;4.25;;;2.72;;
78143;SDS011;67394;52.522;13.622;2023-10-13T15:25:16;5.25;;;2.92;;
78143;SDS011;67394;52.522;13.622;2023-10-13T15:27:44;6.65;;;3.30;;
78143;SDS011;67394;52.522;13.622;2023-10-13T15:30:12;3.95;;;2.50;;
78143;SDS011;67394;52.522;13.622;2023-10-13T15:32:42;4.50;;;2.78;;
78143;SDS011;67394;52.522;13.622;2023-10-13T15:35:09;4.28;;;2.42;;
78143;SDS011;67394;52.522;13.622;2023-10-13T15:37:36;7.47;;;3.53;;
78143;SDS011;67394;52.522;13.622;2023-10-13T15:40:05;4.93;;;2.60;;
78143;SDS011;67394;52.522;13.622;2023-10-13T15:42:32;4.78;;;2.50;;
78143;SDS011;67394;52.522;13.622;2023-10-13T15:44:59;7.22;;;3.22;;
78143;SDS011;67394;52.522;13.622;2023-10-13T15:47:29;6.13;;;2.75;;
78143;SDS011;67394;52.522;13.622;2023-10-13T15:49:58;6.38;;;2.65;;
78143;SDS011;67394;52.522;13.622;2023-10-13T15:52:27;3.95;;;2.58;;
78143;SDS011;67394;52.522;13.622;2023-10-13T15:54:54;4.50;;;2.95;;
78143;SDS011;67394;52.522;13.622;2023-10-13T15:57:21;3.85;;;2.70;;
78143;SDS011;67394;52.522;13.622;2023-10-13T16:02:14;6.85;;;3.13;;
78143;SDS011;67394;52.522;13.622;2023-10-13T16:04:41;5.00;;;2.92;;
78143;SDS011;67394;52.522;13.622;2023-10-13T16:07:08;3.67;;;2.20;;
78143;SDS011;67394;52.522;13.622;2023-10-13T16:09:35;4.88;;;2.65;;
78143;SDS011;67394;52.522;13.622;2023-10-13T16:12:01;3.33;;;2.60;;
78143;SDS011;67394;52.522;13.622;2023-10-13T16:14:28;3.60;;;2.47;;
78143;SDS011;67394;52.522;13.622;2023-10-13T16:16:54;3.83;;;2.60;;